Nichiryu Maru — JG5632 — position and weather

sailwx.info

Track history (hours):
 
Tides and Currents Weather Stations Pressure Air Temp Water Temp Dewpoint Dewpoint Depression Visibility Wind Speed Wind Dir Waves Ship Positions

Nichiryu Maru

Last reported at 2015-Apr-24 08:27 UTC. Time now 2015-May-04 21:07 UTC.
Position N 34°33' E 134°47'.
Warning: this ship's position is 10 days out of date.

Length 158 m; draft 6.5 m.

Type: Cargo ship. MMSI: 43100939.

Date/timePositionNaut miles runAvg speedWind from/ knotsBaromVisibWave heightAir tempDewpointWater temp
2015-Apr-24 08:27N 34°33' E 134°47'1416.0
2015-Apr-24 07:33N 34°36' E 135°04'9 9.0
2015-Apr-24 06:31N 34°41' E 135°13'0 0.0
2015-Apr-24 05:31N 34°41' E 135°13'0 0.0
2015-Apr-24 04:19N 34°41' E 135°13'0 0.0
2015-Apr-24 03:31N 34°41' E 135°13'1 0.8
2015-Apr-24 02:33N 34°40' E 135°14'1414.5
2015-Apr-24 01:33N 34°27' E 135°08'1717.1
2015-Apr-24 00:33N 34°12' E 134°60'22516.1
2015-Apr-23 10:33N 34°58' E 139°27'1918.9
2015-Apr-23 09:33N 35°10' E 139°45'1010.2
2015-Apr-23 08:33N 35°19' E 139°39'0 0.1
2015-Apr-23 07:31N 35°19' E 139°39'0 0.0
2015-Apr-23 06:31N 35°19' E 139°39'0 0.0
2015-Apr-23 05:31N 35°19' E 139°39'0 0.0
2015-Apr-23 04:34N 35°19' E 139°39'5 4.9
2015-Apr-23 03:33N 35°18' E 139°45'1211.8
2015-Apr-23 02:34N 35°06' E 139°44'1616.3
2015-Apr-23 01:33N 34°56' E 139°28'  
2015-Apr-20 15:13N 34°27' E 138°28'5815.5
2015-Apr-20 11:29N 34°58' E 139°28'1516.2
2015-Apr-20 10:32N 35°07' E 139°43'1111.7
2015-Apr-20 09:33N 35°19' E 139°42'3 2.5
2015-Apr-20 08:29N 35°19' E 139°39'0 0.0
2015-Apr-20 07:26N 35°19' E 139°39'0 0.0
2015-Apr-20 06:20N 35°19' E 139°39'0 0.0
2015-Apr-20 05:29N 35°19' E 139°39'0 0.0
2015-Apr-20 04:29N 35°19' E 139°39'0 0.0
2015-Apr-20 02:20N 35°19' E 139°39'0 0.0
2015-Apr-20 01:32N 35°19' E 139°39'0 0.0
2015-Apr-20 00:32N 35°19' E 139°39'0 0.0
2015-Apr-19 23:29N 35°19' E 139°39'2 1.7
2015-Apr-19 22:31N 35°20' E 139°41'0 0.0
2015-Apr-19 21:28N 35°20' E 139°41'0 0.0
2015-Apr-19 20:31N 35°20' E 139°41'0 0.0
2015-Apr-19 19:31N 35°20' E 139°41'0 0.0
2015-Apr-19 18:31N 35°20' E 139°41'0 0.0
2015-Apr-19 17:31N 35°20' E 139°41'0 0.0
2015-Apr-19 16:31N 35°20' E 139°41'0 0.0
2015-Apr-19 15:28N 35°20' E 139°41'0 0.1
2015-Apr-19 14:31N 35°20' E 139°41'0 0.1
2015-Apr-19 13:31N 35°20' E 139°41'0 0.2
2015-Apr-19 12:34N 35°19' E 139°41'1211.7
2015-Apr-19 11:34N 35°08' E 139°45'6819.6
2015-Apr-19 08:06N 34°32' E 138°35'182 3.8
2015-Apr-17 08:21N 34°36' E 134°55'1418.1
2015-Apr-17 07:33N 34°37' E 135°12'4 3.6
2015-Apr-17 06:28N 34°41' E 135°13'0 0.0
2015-Apr-17 05:28N 34°41' E 135°13'0 0.0
2015-Apr-17 04:34N 34°41' E 135°13'7 6.6
2015-Apr-17 03:34N 34°34' E 135°15'1919.3
2015-Apr-17 02:33N 34°19' E 135°01'1918.7
2015-Apr-17 01:34N 34°00' E 135°01'21116.1
2015-Apr-16 12:29N 34°46' E 139°11'1718.4
2015-Apr-16 11:33N 34°57' E 139°26'1818.1
2015-Apr-16 10:33N 35°07' E 139°44'1111.5
2015-Apr-16 09:33N 35°19' E 139°42'2 2.2
2015-Apr-16 08:31N 35°19' E 139°39'0 0.0
2015-Apr-16 07:31N 35°19' E 139°39'0 0.0
2015-Apr-16 06:31N 35°19' E 139°39'0 0.0
2015-Apr-16 05:31N 35°19' E 139°39'0 0.0
2015-Apr-16 04:33N 35°19' E 139°39'5 5.0
2015-Apr-16 03:33N 35°18' E 139°45'1313.2
2015-Apr-16 02:33N 35°05' E 139°42'1512.1
2015-Apr-16 01:18N 34°53' E 139°30'  
Track history (hours):
 
Tides and Currents Weather Stations Pressure Air Temp Water Temp Dewpoint Dewpoint Depression Visibility Wind Speed Wind Dir Waves Ship Positions

Nichiryu Maru

Last reported at 2015-Apr-24 08:27 UTC. Time now 2015-May-04 21:07 UTC.
Position N 34°33' E 134°47'.
Warning: this ship's position is 10 days out of date.

Length 158 m; draft 6.5 m.

Type: Cargo ship. MMSI: 43100939.

Date/timePositionNaut miles runAvg speedWind from/ knotsBaromVisibWave heightAir tempDewpointWater temp
2015-Apr-24 08:27N 34°33' E 134°47'1416.0
2015-Apr-24 07:33N 34°36' E 135°04'9 9.0
2015-Apr-24 06:31N 34°41' E 135°13'0 0.0
2015-Apr-24 05:31N 34°41' E 135°13'0 0.0
2015-Apr-24 04:19N 34°41' E 135°13'0 0.0
2015-Apr-24 03:31N 34°41' E 135°13'1 0.8
2015-Apr-24 02:33N 34°40' E 135°14'1414.5
2015-Apr-24 01:33N 34°27' E 135°08'1717.1
2015-Apr-24 00:33N 34°12' E 134°60'22516.1
2015-Apr-23 10:33N 34°58' E 139°27'1918.9
2015-Apr-23 09:33N 35°10' E 139°45'1010.2
2015-Apr-23 08:33N 35°19' E 139°39'0 0.1
2015-Apr-23 07:31N 35°19' E 139°39'0 0.0
2015-Apr-23 06:31N 35°19' E 139°39'0 0.0
2015-Apr-23 05:31N 35°19' E 139°39'0 0.0
2015-Apr-23 04:34N 35°19' E 139°39'5 4.9
2015-Apr-23 03:33N 35°18' E 139°45'1211.8
2015-Apr-23 02:34N 35°06' E 139°44'1616.3
2015-Apr-23 01:33N 34°56' E 139°28'  
2015-Apr-20 15:13N 34°27' E 138°28'5815.5
2015-Apr-20 11:29N 34°58' E 139°28'1516.2
2015-Apr-20 10:32N 35°07' E 139°43'1111.7
2015-Apr-20 09:33N 35°19' E 139°42'3 2.5
2015-Apr-20 08:29N 35°19' E 139°39'0 0.0
2015-Apr-20 07:26N 35°19' E 139°39'0 0.0
2015-Apr-20 06:20N 35°19' E 139°39'0 0.0
2015-Apr-20 05:29N 35°19' E 139°39'0 0.0
2015-Apr-20 04:29N 35°19' E 139°39'0 0.0
2015-Apr-20 02:20N 35°19' E 139°39'0 0.0
2015-Apr-20 01:32N 35°19' E 139°39'0 0.0
2015-Apr-20 00:32N 35°19' E 139°39'0 0.0
2015-Apr-19 23:29N 35°19' E 139°39'2 1.7
2015-Apr-19 22:31N 35°20' E 139°41'0 0.0
2015-Apr-19 21:28N 35°20' E 139°41'0 0.0
2015-Apr-19 20:31N 35°20' E 139°41'0 0.0
2015-Apr-19 19:31N 35°20' E 139°41'0 0.0
2015-Apr-19 18:31N 35°20' E 139°41'0 0.0
2015-Apr-19 17:31N 35°20' E 139°41'0 0.0
2015-Apr-19 16:31N 35°20' E 139°41'0 0.0
2015-Apr-19 15:28N 35°20' E 139°41'0 0.1
2015-Apr-19 14:31N 35°20' E 139°41'0 0.1
2015-Apr-19 13:31N 35°20' E 139°41'0 0.2
2015-Apr-19 12:34N 35°19' E 139°41'1211.7
2015-Apr-19 11:34N 35°08' E 139°45'6819.6
2015-Apr-19 08:06N 34°32' E 138°35'182 3.8
2015-Apr-17 08:21N 34°36' E 134°55'1418.1
2015-Apr-17 07:33N 34°37' E 135°12'4 3.6
2015-Apr-17 06:28N 34°41' E 135°13'0 0.0
2015-Apr-17 05:28N 34°41' E 135°13'0 0.0
2015-Apr-17 04:34N 34°41' E 135°13'7 6.6
2015-Apr-17 03:34N 34°34' E 135°15'1919.3
2015-Apr-17 02:33N 34°19' E 135°01'1918.7
2015-Apr-17 01:34N 34°00' E 135°01'21116.1
2015-Apr-16 12:29N 34°46' E 139°11'1718.4
2015-Apr-16 11:33N 34°57' E 139°26'1818.1
2015-Apr-16 10:33N 35°07' E 139°44'1111.5
2015-Apr-16 09:33N 35°19' E 139°42'2 2.2
2015-Apr-16 08:31N 35°19' E 139°39'0 0.0
2015-Apr-16 07:31N 35°19' E 139°39'0 0.0
2015-Apr-16 06:31N 35°19' E 139°39'0 0.0
2015-Apr-16 05:31N 35°19' E 139°39'0 0.0
2015-Apr-16 04:33N 35°19' E 139°39'5 5.0
2015-Apr-16 03:33N 35°18' E 139°45'1313.2
2015-Apr-16 02:33N 35°05' E 139°42'1512.1
2015-Apr-16 01:18N 34°53' E 139°30'  

Dump ship's entire track history